.
WxDataArchive / Data Records for 2008-12-28
2008-12-27 December 2008 2008-12-29

Data Records for Sunday, 28 December 2008

Time	Temp	Chill	HIndex	Humid	Dewpt	 Wind 	HiWind	WindDir	Rain 	Barom 
-----	----	-----	------	-----	-----	------	------	-------	-----	----- 
00:00	56.0	56.0	56.0	97	55.2	3	7	68	0.00	29.562 
00:05	56.3	56.3	56.3	96	55.2	3	7	68	0.01	29.560 
00:10	56.3	56.3	56.3	96	55.2	2	7	68	0.01	29.561 
00:15	56.5	56.5	56.5	96	55.4	3	9	45	0.01	29.556 
00:20	56.5	56.5	56.5	96	55.4	1	4	68	0.00	29.553 
00:25	56.5	56.5	56.5	96	55.4	1	4	270	0.01	29.560 
00:30	56.3	56.3	56.3	96	55.2	1	4	68	0.01	29.540 
00:35	56.3	56.3	56.3	96	55.2	2	5	90	0.01	29.531 
00:40	56.3	56.3	56.3	96	55.2	3	7	112	0.01	29.532 
00:45	56.2	56.2	56.2	96	55.1	3	5	90	0.01	29.531 
00:50	56.2	56.2	56.2	96	55.1	3	8	90	0.00	29.529 
00:55	56.2	56.2	56.2	96	55.1	4	11	90	0.00	29.521 
01:00	56.2	56.2	56.2	96	55.1	3	7	90	0.00	29.524 
01:05	56.2	56.2	56.2	96	55.1	2	7	90	0.00	29.519 
01:10	56.2	56.2	56.2	95	54.8	3	10	270	0.00	29.519 
01:15	56.2	56.2	56.2	95	54.8	2	6	248	0.00	29.522 
01:20	56.3	56.3	56.3	95	54.9	2	6	248	0.00	29.515 
01:25	56.3	56.3	56.3	95	54.9	2	6	270	0.00	29.516 
01:30	56.5	56.5	56.5	95	55.1	2	7	45	0.00	29.502 
01:35	56.5	56.5	56.5	95	55.1	3	11	248	0.00	29.505 
01:40	56.6	56.6	56.6	95	55.2	3	11	270	0.00	29.504 
01:45	56.6	56.6	56.6	96	55.5	3	7	248	0.00	29.499 
01:50	56.6	56.6	56.6	94	54.9	4	15	248	0.00	29.498 
01:55	56.6	56.6	56.6	94	54.9	4	11	248	0.00	29.498 
02:00	56.7	56.7	56.7	93	54.7	4	10	248	0.00	29.495 
02:05	56.7	56.7	56.7	92	54.4	5	14	248	0.00	29.498 
02:10	56.9	56.9	56.9	91	54.3	5	16	270	0.00	29.497 
02:15	56.9	56.9	56.9	90	54.0	5	14	248	0.01	29.501 
02:20	56.9	56.9	56.9	90	54.0	6	16	248	0.00	29.505 
02:25	56.7	56.7	56.7	89	53.5	5	13	270	0.00	29.500 
02:30	56.7	56.7	56.7	88	53.2	6	14	270	0.00	29.499 
02:35	56.7	56.7	56.7	87	52.9	5	16	270	0.00	29.497 
02:40	56.7	56.7	56.7	86	52.6	6	14	270	0.00	29.499 
02:45	55.0	55.0	55.0	84	50.3	7	20	270	0.00	29.535 
02:50	47.7	43.6	47.7	77	40.8	9	20	270	0.00	29.566 
02:55	44.2	40.2	44.2	81	38.7	7	17	270	0.00	29.575 
03:00	42.5	37.6	42.5	84	38.0	8	21	270	0.00	29.591 
03:05	41.8	36.8	41.8	86	37.9	8	16	270	0.00	29.594 
03:10	41.1	35.9	41.1	86	37.2	8	18	270	0.00	29.600 
03:15	40.2	34.8	40.2	84	35.8	8	18	270	0.00	29.605 
03:20	39.5	33.5	39.5	84	35.1	9	23	270	0.00	29.609 
03:25	39.1	33.0	39.1	82	34.1	9	25	270	0.00	29.610 
03:30	38.6	33.5	38.6	82	33.6	7	16	270	0.00	29.631 
03:35	38.2	31.9	38.2	81	32.9	9	17	270	0.00	29.636 
03:40	37.6	31.1	37.6	81	32.3	9	23	270	0.00	29.641 
03:45	36.9	28.9	36.9	81	31.6	12	26	270	0.00	29.643 
03:50	36.5	29.8	36.5	83	31.8	9	31	270	0.00	29.645 
03:55	36.0	28.7	36.0	81	30.7	10	24	270	0.00	29.644 
04:00	35.8	28.0	35.8	80	30.2	11	23	270	0.00	29.645 
04:05	35.6	29.2	35.6	79	29.7	8	20	270	0.00	29.645 
04:10	35.3	27.8	35.3	79	29.4	10	20	270	0.00	29.660 
04:15	35.2	28.2	35.2	79	29.4	9	19	270	0.00	29.676 
04:20	34.9	26.4	34.9	78	28.7	12	26	270	0.00	29.682 
04:25	34.7	27.1	34.7	78	28.6	10	21	270	0.00	29.681 
04:30	34.4	26.2	34.4	78	28.3	11	26	270	0.00	29.693 
04:35	34.1	26.3	34.1	78	28.0	10	22	270	0.00	29.695 
04:40	34.0	26.2	34.0	77	27.6	10	20	270	0.00	29.706 
04:45	34.0	26.2	34.0	77	27.6	10	22	270	0.00	29.710 
04:50	33.8	26.5	33.8	77	27.4	9	22	270	0.00	29.712 
04:55	33.8	25.5	33.8	77	27.4	11	23	270	0.00	29.710 
05:00	33.7	26.9	33.7	77	27.3	8	20	270	0.00	29.713 
05:05	33.5	27.3	33.5	77	27.1	7	16	270	0.00	29.715 
05:10	33.5	25.6	33.5	78	27.4	10	25	270	0.00	29.714 
05:15	33.4	26.6	33.4	79	27.6	8	19	270	0.00	29.725 
05:20	33.4	27.2	33.4	79	27.6	7	14	270	0.00	29.725 
05:25	33.4	26.0	33.4	79	27.6	9	23	270	0.00	29.725 
05:30	33.4	27.2	33.4	79	27.6	7	22	270	0.00	29.729 
05:35	33.4	25.0	33.4	77	27.0	11	21	270	0.00	29.738 
05:40	33.4	26.6	33.4	76	26.7	8	18	270	0.00	29.740 
05:45	33.4	25.5	33.4	75	26.3	10	23	270	0.00	29.743 
05:50	33.4	26.0	33.4	75	26.3	9	20	270	0.00	29.747 
05:55	33.4	26.0	33.4	75	26.3	9	19	270	0.00	29.755 
06:00	33.2	25.7	33.2	75	26.2	9	24	270	0.00	29.756 
06:05	33.1	25.1	33.1	75	26.1	10	22	270	0.00	29.762 
06:10	32.9	25.4	32.9	76	26.2	9	33	270	0.00	29.765 
06:15	32.8	26.5	32.8	77	26.4	7	18	270	0.00	29.770 
06:20	32.7	24.6	32.7	78	26.6	10	25	270	0.00	29.774 
06:25	32.7	25.7	32.7	79	26.9	8	19	270	0.00	29.776 
06:30	32.5	26.8	32.5	79	26.7	6	18	270	0.00	29.782 
06:35	32.5	24.9	32.5	78	26.4	9	19	270	0.00	29.786 
06:40	32.4	24.2	32.4	77	26.0	10	17	270	0.00	29.793 
06:45	32.2	23.0	32.2	76	25.5	12	26	270	0.00	29.796 
06:50	32.1	23.9	32.1	74	24.8	10	22	270	0.00	29.797 
06:55	32.1	25.6	32.1	73	24.4	7	15	270	0.00	29.812 
07:00	31.9	25.4	31.9	74	24.6	7	16	270	0.00	29.815 
07:05	31.8	25.3	31.8	73	24.1	7	13	270	0.00	29.821 
07:10	31.6	23.8	31.6	73	24.0	9	24	270	0.00	29.830 
07:15	31.5	24.2	31.5	73	23.9	8	17	270	0.00	29.830 
07:20	31.3	25.4	31.3	73	23.7	6	14	270	0.00	29.833 
07:25	31.2	23.9	31.2	73	23.6	8	17	270	0.00	29.838 
07:30	31.0	22.5	31.0	72	23.1	10	19	270	0.00	29.848 
07:35	31.0	23.6	31.0	72	23.1	8	18	270	0.00	29.850 
07:40	30.9	24.9	30.9	72	23.0	6	14	270	0.00	29.856 
07:45	30.9	24.9	30.9	70	22.3	6	16	270	0.00	29.859 
07:50	30.7	23.9	30.7	69	21.8	7	16	270	0.00	29.862 
07:55	30.7	23.9	30.7	68	21.4	7	18	270	0.00	29.863 
08:00	30.6	23.1	30.6	68	21.3	8	18	248	0.00	29.866 
08:05	30.6	23.8	30.6	68	21.3	7	16	270	0.00	29.875 
08:10	30.7	25.5	30.7	68	21.4	5	11	270	0.00	29.877 
08:15	30.7	25.5	30.7	69	21.8	5	11	270	0.00	29.879 
08:20	30.7	24.7	30.7	70	22.1	6	18	270	0.00	29.884 
08:25	30.7	24.7	30.7	70	22.1	6	11	270	0.00	29.884 
08:30	30.9	24.9	30.9	70	22.3	6	13	270	0.00	29.889 
08:35	30.9	25.8	30.9	70	22.3	5	14	270	0.00	29.894 
08:40	30.9	24.9	30.9	71	22.6	6	18	270	0.00	29.896 
08:45	30.9	23.5	30.9	70	22.3	8	15	270	0.00	29.904 
08:50	30.9	23.5	30.9	70	22.3	8	19	270	0.00	29.910 
08:55	30.9	22.9	30.9	70	22.3	9	19	270	0.00	29.917 
09:00	30.7	25.5	30.7	70	22.1	5	14	270	0.00	29.926 
09:05	30.7	24.7	30.7	70	22.1	6	15	270	0.00	29.927 
09:10	30.7	24.7	30.7	70	22.1	6	15	270	0.00	29.939 
09:15	30.7	24.7	30.7	71	22.4	6	16	270	0.00	29.942 
09:20	30.7	23.3	30.7	71	22.4	8	16	270	0.00	29.952 
09:25	30.6	24.6	30.6	72	22.7	6	20	270	0.00	29.958 
09:30	30.6	23.1	30.6	72	22.7	8	18	270	0.00	29.958 
09:35	30.4	22.3	30.4	70	21.8	9	19	270	0.00	29.956 
09:40	30.6	23.8	30.6	71	22.3	7	18	270	0.00	29.963 
09:45	30.6	23.8	30.6	71	22.3	7	15	270	0.00	29.963 
09:50	30.6	23.8	30.6	71	22.3	7	17	270	0.00	29.971 
09:55	30.7	25.5	30.7	72	22.8	5	13	270	0.00	29.972 
10:00	30.7	24.7	30.7	72	22.8	6	13	248	0.00	29.976 
10:05	30.7	24.7	30.7	73	23.1	6	20	270	0.00	29.979 
10:10	30.7	23.9	30.7	73	23.1	7	19	248	0.00	29.985 
10:15	30.9	24.9	30.9	73	23.3	6	14	270	0.00	29.994 
10:20	30.9	26.8	30.9	73	23.3	4	10	270	0.00	29.997 
10:25	30.9	25.8	30.9	73	23.3	5	15	270	0.00	30.004 
10:30	30.9	25.8	30.9	73	23.3	5	12	270	0.00	30.005 
10:35	30.9	23.5	30.9	72	23.0	8	21	270	0.00	30.008 
10:40	30.9	25.8	30.9	73	23.3	5	11	270	0.00	30.010 
10:45	31.0	25.0	31.0	73	23.4	6	17	270	0.00	30.017 
10:50	31.0	23.0	31.0	72	23.1	9	24	270	0.00	30.020 
10:55	31.0	24.3	31.0	72	23.1	7	16	270	0.00	30.022 
11:00	31.2	24.5	31.2	72	23.2	7	14	270	0.00	30.022 
11:05	31.2	27.2	31.2	72	23.2	4	11	270	0.00	30.019 
11:10	31.3	26.3	31.3	72	23.3	5	12	270	0.00	30.020 
11:15	31.5	24.9	31.5	71	23.2	7	21	270	0.00	30.020 
11:20	31.5	24.9	31.5	71	23.2	7	18	270	0.00	30.019 
11:25	31.5	24.9	31.5	70	22.9	7	15	248	0.00	30.023 
11:30	31.6	23.8	31.6	69	22.6	9	22	270	0.00	30.026 
11:35	31.6	26.6	31.6	70	23.0	5	14	270	0.00	30.031 
11:40	31.8	26.8	31.8	70	23.2	5	12	270	0.00	30.037 
11:45	31.8	26.8	31.8	71	23.5	5	12	270	0.00	30.044 
11:50	31.8	26.8	31.8	70	23.2	5	13	270	0.00	30.049 
11:55	31.6	25.8	31.6	69	22.6	6	14	270	0.00	30.047 
12:00	31.6	25.8	31.6	69	22.6	6	16	270	0.00	30.047 
12:05	31.8	26.8	31.8	69	22.8	5	11	270	0.00	30.049 
12:10	31.8	26.0	31.8	69	22.8	6	14	270	0.00	30.054 
12:15	31.9	27.0	31.9	70	23.2	5	12	270	0.00	30.054 
12:20	31.8	25.3	31.8	69	22.8	7	16	270	0.00	30.058 
12:25	31.8	24.0	31.8	68	22.5	9	20	270	0.00	30.063 
12:30	31.8	23.5	31.8	67	22.1	10	23	270	0.00	30.061 
12:35	31.9	25.4	31.9	68	22.6	7	17	270	0.00	30.060 
12:40	32.4	27.5	32.4	68	23.0	5	14	270	0.00	30.061 
12:45	32.7	27.9	32.7	68	23.3	5	12	270	0.00	30.059 
12:50	32.8	27.2	32.8	67	23.1	6	16	270	0.00	30.061 
12:55	32.5	27.7	32.5	68	23.1	5	13	270	0.00	30.061 
13:00	32.4	28.5	32.4	69	23.4	4	12	270	0.00	30.062 
13:05	32.4	26.7	32.4	68	23.0	6	17	248	0.00	30.057 
13:10	32.2	26.5	32.2	69	23.2	6	15	270	0.00	30.060 
13:15	32.2	25.7	32.2	68	22.8	7	19	270	0.00	30.054 
13:20	32.4	26.0	32.4	68	23.0	7	15	270	0.00	30.052 
13:25	32.5	27.7	32.5	69	23.5	5	14	270	0.00	30.120 
13:30	32.4	25.3	32.4	68	23.0	8	16	270	0.00	30.116 
13:35	32.8	26.5	32.8	69	23.8	7	13	270	0.00	30.116 
13:40	33.4	27.2	33.4	68	24.0	7	16	270	0.00	30.116 
13:45	33.7	27.5	33.7	68	24.3	7	16	270	0.00	30.119 
13:50	34.1	29.5	34.1	67	24.3	5	15	270	0.00	30.119 
13:55	34.1	28.7	34.1	68	24.7	6	15	270	0.00	30.119 
14:00	34.0	28.6	34.0	67	24.2	6	13	270	0.00	30.119 
14:05	34.1	28.7	34.1	68	24.7	6	14	270	0.00	30.119 
14:10	34.1	29.5	34.1	68	24.7	5	15	270	0.00	30.119 
14:15	34.1	29.5	34.1	68	24.7	5	13	270	0.00	30.134 
14:20	34.4	29.9	34.4	68	24.9	5	11	270	0.00	30.134 
14:25	34.7	30.2	34.7	69	25.6	5	12	270	0.00	30.134 
14:30	34.9	31.4	34.9	67	25.1	4	11	270	0.00	30.136 
14:35	34.4	29.9	34.4	68	24.9	5	12	270	0.00	30.136 
14:40	34.0	29.4	34.0	68	24.6	5	19	270	0.00	30.136 
14:45	33.8	27.7	33.8	68	24.4	7	14	270	0.00	30.145 
14:50	34.1	28.7	34.1	68	24.7	6	18	270	0.00	30.145 
14:55	34.1	28.7	34.1	69	25.0	6	18	270	0.00	30.145 
15:00	34.4	29.1	34.4	68	24.9	6	15	270	0.00	30.154 
15:05	34.3	29.8	34.3	68	24.9	5	14	270	0.00	30.154 
15:10	34.3	29.0	34.3	69	25.2	6	16	270	0.00	30.154 
15:15	34.4	29.9	34.4	69	25.3	5	16	270	0.00	30.158 
15:20	34.4	29.9	34.4	69	25.3	5	14	270	0.00	30.158 
15:25	34.7	31.2	34.7	69	25.6	4	13	248	0.00	30.158 
15:30	34.7	31.2	34.7	69	25.6	4	12	248	0.00	30.164 
15:35	34.7	34.7	34.7	70	25.9	3	6	270	0.00	30.164 
15:40	35.3	35.3	35.3	69	26.2	3	11	270	0.00	30.164 
15:45	35.2	35.2	35.2	69	26.1	3	11	270	0.00	30.160 
15:50	34.7	31.2	34.7	69	25.6	4	12	270	0.00	30.160 
15:55	34.4	29.9	34.4	69	25.3	5	10	270	0.00	30.160 
16:00	34.3	34.3	34.3	70	25.5	3	10	270	0.00	30.159 
16:05	34.4	29.9	34.4	70	25.6	5	13	270	0.00	30.159 
16:10	34.6	34.6	34.6	71	26.2	2	7	248	0.00	30.159 
16:15	34.6	31.1	34.6	69	25.5	4	12	248	0.00	30.172 
16:20	34.6	31.1	34.6	70	25.8	4	10	248	0.00	30.172 
16:25	34.4	30.8	34.4	70	25.6	4	9	248	0.00	30.172 
16:30	34.3	34.3	34.3	70	25.5	3	6	248	0.00	30.173 
16:35	34.0	34.0	34.0	70	25.3	2	4	270	0.00	30.173 
16:40	33.8	33.8	33.8	71	25.4	3	7	248	0.00	30.173 
16:45	33.7	33.7	33.7	71	25.3	3	11	248	0.00	30.172 
16:50	33.5	29.8	33.5	71	25.1	4	11	270	0.00	30.172 
16:55	33.5	33.5	33.5	72	25.5	3	8	270	0.00	30.172 
17:00	33.4	33.4	33.4	71	25.0	3	10	270	0.00	30.181 
17:05	33.2	33.2	33.2	72	25.2	2	6	270	0.00	30.181 
17:10	33.2	33.2	33.2	73	25.5	3	9	248	0.00	30.181 
17:15	33.2	33.2	33.2	73	25.5	3	10	248	0.00	30.200 
17:20	33.1	33.1	33.1	74	25.7	1	4	248	0.00	30.200 
17:25	32.9	32.9	32.9	74	25.5	3	9	248	0.00	30.200 
17:30	32.9	32.9	32.9	74	25.5	1	3	248	0.00	30.207 
17:35	32.8	32.8	32.8	75	25.8	2	7	248	0.00	30.207 
17:40	32.8	32.8	32.8	75	25.8	2	6	248	0.00	30.207 
17:45	32.7	32.7	32.7	75	25.7	2	6	248	0.00	30.205 
17:50	32.7	32.7	32.7	76	26.0	1	4	248	0.00	30.205 
17:55	32.5	32.5	32.5	76	25.8	1	5	248	0.00	30.205 
18:00	32.5	32.5	32.5	76	25.8	1	5	248	0.00	30.211 
18:05	32.5	32.5	32.5	77	26.1	2	5	248	0.00	30.211 
18:10	32.4	32.4	32.4	77	26.0	2	6	248	0.00	30.211 
18:15	32.4	32.4	32.4	77	26.0	2	4	248	0.00	30.212 
18:20	32.2	32.2	32.2	77	25.8	1	5	248	0.00	30.212 
18:25	32.2	32.2	32.2	77	25.8	1	3	248	0.00	30.212 
18:30	32.1	32.1	32.1	78	26.0	1	5	248	0.00	30.212 
18:35	31.9	31.9	31.9	78	25.8	0	3	248	0.00	30.212 
18:40	31.8	31.8	31.8	79	26.0	0	2	248	0.00	30.212 
18:45	31.6	31.6	31.6	79	25.8	1	4	248	0.00	30.216 
18:50	31.6	31.6	31.6	80	26.2	1	5	248	0.00	30.216 
18:55	31.5	31.5	31.5	80	26.1	1	3	248	0.00	30.216 
19:00	31.5	31.5	31.5	80	26.1	0	3	248	0.00	30.213 
19:05	31.3	31.3	31.3	80	25.9	0	3	248	0.00	30.213 
19:10	31.2	31.2	31.2	80	25.8	0	1	248	0.00	30.213 
19:15	31.0	31.0	31.0	80	25.6	0	1	248	0.00	30.214 
19:20	30.9	30.9	30.9	81	25.8	0	0	---	0.00	30.214 
19:25	30.7	30.7	30.7	81	25.6	0	2	248	0.00	30.214 
19:30	30.6	30.6	30.6	81	25.5	0	2	248	0.00	30.215 
19:35	30.4	30.4	30.4	82	25.6	0	3	248	0.00	30.215 
19:40	30.4	30.4	30.4	82	25.6	0	0	---	0.00	30.215 
19:45	30.1	30.1	30.1	82	25.3	0	1	248	0.00	30.217 
19:50	30.0	30.0	30.0	82	25.2	0	0	---	0.00	30.217 
19:55	29.7	29.7	29.7	83	25.2	0	0	---	0.00	30.217 
20:00	29.5	29.5	29.5	83	25.0	0	0	---	0.00	30.215 
20:05	29.3	29.3	29.3	83	24.8	0	0	---	0.00	30.215 
20:10	29.1	29.1	29.1	84	24.9	0	0	---	0.00	30.215 
20:15	29.0	29.0	29.0	85	25.1	0	0	---	0.00	30.217 
20:20	29.0	29.0	29.0	85	25.1	0	1	248	0.00	30.217 
20:25	29.0	29.0	29.0	85	25.1	0	1	248	0.00	30.217 
20:30	29.0	29.0	29.0	85	25.1	0	0	---	0.00	30.217 
20:35	28.8	28.8	28.8	86	25.2	0	0	---	0.00	30.217 
20:40	29.0	29.0	29.0	86	25.3	0	1	248	0.00	30.217 
20:45	29.1	29.1	29.1	86	25.4	0	1	248	0.00	30.216 
20:50	29.1	29.1	29.1	86	25.4	0	1	248	0.00	30.216 
20:55	29.1	29.1	29.1	86	25.4	0	1	248	0.00	30.216 
21:00	29.1	29.1	29.1	85	25.2	0	1	248	0.00	30.216 
21:05	29.0	29.0	29.0	85	25.1	0	0	---	0.00	30.216 
21:10	28.8	28.8	28.8	85	24.9	0	1	248	0.00	30.216 
21:15	28.7	28.7	28.7	85	24.8	0	1	248	0.00	30.216 
21:20	28.7	28.7	28.7	86	25.1	0	1	248	0.00	30.216 
21:25	28.7	28.7	28.7	86	25.1	0	1	248	0.00	30.216 
21:30	28.7	28.7	28.7	86	25.1	0	1	248	0.00	30.215 
21:35	28.7	28.7	28.7	86	25.1	0	0	---	0.00	30.215 
21:40	28.7	28.7	28.7	86	25.1	0	1	248	0.00	30.215 
21:45	28.5	28.5	28.5	86	24.9	0	0	---	0.00	30.215 
21:50	28.2	28.2	28.2	85	24.3	0	0	---	0.00	30.215 
21:55	28.2	28.2	28.2	86	24.6	0	1	248	0.00	30.215 
22:00	28.2	28.2	28.2	86	24.6	0	1	248	0.00	30.219 
22:05	28.2	28.2	28.2	86	24.6	0	1	248	0.00	30.219 
22:10	28.2	28.2	28.2	86	24.6	0	1	248	0.00	30.219 
22:15	28.2	28.2	28.2	86	24.6	0	1	248	0.00	30.220 
22:20	28.2	28.2	28.2	86	24.6	0	1	248	0.00	30.220 
22:25	28.2	28.2	28.2	87	24.8	0	2	248	0.00	30.220 
22:30	28.2	28.2	28.2	87	24.8	0	1	248	0.00	30.218 
22:35	28.4	28.4	28.4	87	25.0	0	1	248	0.00	30.218 
22:40	28.4	28.4	28.4	87	25.0	0	1	248	0.00	30.218 
22:45	28.4	28.4	28.4	87	25.0	0	1	248	0.00	30.215 
22:50	28.4	28.4	28.4	87	25.0	0	0	---	0.00	30.215 
22:55	28.4	28.4	28.4	87	25.0	0	4	248	0.00	30.215 
23:00	28.4	28.4	28.4	87	25.0	0	1	248	0.00	30.211 
23:05	28.4	28.4	28.4	87	25.0	0	1	248	0.00	30.209 
23:10	28.2	28.2	28.2	87	24.8	0	1	248	0.00	30.211 
23:15	28.1	28.1	28.1	87	24.7	0	1	248	0.00	30.211 
23:20	27.9	27.9	27.9	87	24.5	0	0	---	0.00	30.212 
23:25	27.9	27.9	27.9	87	24.5	0	0	---	0.00	30.212 
23:30	27.8	27.8	27.8	87	24.4	0	1	248	0.00	30.214 
23:35	27.6	27.6	27.6	87	24.2	0	0	---	0.00	30.214 
23:40	27.6	27.6	27.6	87	24.2	0	0	---	0.00	30.214 
23:45	27.3	27.3	27.3	87	24.0	0	0	---	0.00	30.212 
23:50	27.2	27.2	27.2	87	23.9	0	0	---	0.00	30.213 
23:55	27.0	27.0	27.0	88	23.9	0	0	---	0.00	30.214 

CoCoRaHS
IN-AL-39
A2 Web Hosting
Creative Commons License
GoDaddy
search engine by freefind advanced

loaded 2018-11-15 03:51:06 • last modified 2010-11-18 10:43:29
Privacy PolicyDisclaimer
• wx.awcolley.com is powered by PmWiki v.2002016 •
• all content (unless otherwise noted) © 2018 A W Colley